Tenerife / Sur Reina, Spain
Current Conditions -  °F | °C
As of 6:00 AM on Saturday 29 Nov 2014 (Local Time) from GCTS Reporting Station
Scattered Clouds Scattered Clouds  
Wind Chill: 70°   Ceiling: Unl
Heat Index: 70°   Visibility: 6mi
Dew Point: 52°   Wind: 6mph
Humidity: 53%   Direction: NA
Pressure: 29.53"   Gusts: NA
Location:  28.05°N, 16.57°W
Report Text: GCTS 290600Z VRB05KT 9999 SCT045 21/11 Q1000 NOSIG
Loading
Personal Weather Stations






























Interactive Weather Map New forecast layout! Learn more

10-Day Weather Forecast

Advertisements
Track Severe Weather on mobile